Time;durP1;ratioP1;P1;durP2;ratioP2;P2;SDS_P1;SDS_P2;PMS_P1;PMS_P2;Temp;Humidity;BMP_temperature;BMP_pressure;BME280_temperature;BME280_humidity;BME280_pressure;Samples;Min_cycle;Max_cycle;Signal;HPM_P1;HPM_P2
2021/07/24 00:01:11;;;;;;;0.70;0.60;;;;;;;17.18;100.00;54545.50;5036923;28;20813;-72
2021/07/24 00:03:40;;;;;;;0.70;0.60;;;;;;;17.12;100.00;57523.63;5034794;28;20989;-72
2021/07/24 00:06:08;;;;;;;0.80;0.73;;;;;;;17.07;100.00;59841.03;5036851;28;20490;-72
2021/07/24 00:08:35;;;;;;;0.77;0.67;;;;;;;17.02;100.00;63156.59;5039100;28;20449;-72
2021/07/24 00:11:03;;;;;;;0.80;0.70;;;;;;;17.00;100.00;65147.47;5034395;28;21235;-72
2021/07/24 00:13:31;;;;;;;0.80;0.73;;;;;;;17.03;100.00;66813.28;5038665;28;20455;-72
2021/07/24 00:15:58;;;;;;;0.70;0.60;;;;;;;17.03;100.00;68143.75;5033864;28;20470;-72
2021/07/24 00:18:26;;;;;;;0.80;0.70;;;;;;;16.99;100.00;69137.09;5035704;28;20470;-72
2021/07/24 00:20:54;;;;;;;0.70;0.70;;;;;;;16.93;100.00;69463.19;5034316;28;20548;-72
2021/07/24 00:23:22;;;;;;;0.70;0.60;;;;;;;16.83;100.00;70449.31;5035664;28;20469;-73
2021/07/24 00:25:49;;;;;;;0.70;0.60;;;;;;;16.81;100.00;71778.88;5037012;28;20458;-71
2021/07/24 00:28:17;;;;;;;0.80;0.70;;;;;;;16.84;100.00;72115.59;5023590;28;20467;-72
2021/07/24 00:30:44;;;;;;;0.80;0.70;;;;;;;16.77;100.00;72439.72;5009755;28;20465;-71
2021/07/24 00:33:25;;;;;;;0.70;0.60;;;;;;;16.70;100.00;73096.75;5033815;28;21097;-71
2021/07/24 00:35:56;;;;;;;0.80;0.70;;;;;;;16.64;100.00;73755.09;5009522;28;20474;-71
2021/07/24 00:38:25;;;;;;;0.80;0.60;;;;;;;16.57;100.00;74412.09;5028467;28;21072;-72
2021/07/24 00:40:55;;;;;;;0.80;0.70;;;;;;;16.52;100.00;75404.84;5026747;28;20523;-72
2021/07/24 00:43:27;;;;;;;0.80;0.70;;;;;;;16.48;100.00;74733.44;5027689;28;20476;-72
2021/07/24 00:45:55;;;;;;;0.70;0.70;;;;;;;16.51;100.00;75070.44;5037994;28;20879;-72
2021/07/24 00:48:24;;;;;;;0.73;0.67;;;;;;;16.52;100.00;74738.66;5045661;28;20467;-71
2021/07/24 00:51:10;;;;;;;0.70;0.60;;;;;;;16.49;100.00;74735.41;5045893;28;20467;-71
2021/07/24 00:53:37;;;;;;;0.70;0.70;;;;;;;16.47;100.00;74399.16;5047300;28;21023;-71
2021/07/24 00:56:05;;;;;;;0.80;0.70;;;;;;;16.45;100.00;74064.22;5044664;28;20452;-72
2021/07/24 00:58:35;;;;;;;0.70;0.60;;;;;;;16.40;100.00;73725.50;5045503;28;20470;-72
2021/07/24 01:01:04;;;;;;;0.70;0.60;;;;;;;16.42;100.00;73394.53;5047079;28;20461;-72
2021/07/24 01:03:32;;;;;;;1.10;1.00;;;;;;;16.49;100.00;73402.88;5045286;28;20572;-72
2021/07/24 01:06:00;;;;;;;0.73;0.67;;;;;;;16.40;100.00;72726.97;5046382;28;20812;-72
2021/07/24 01:08:31;;;;;;;0.70;0.60;;;;;;;16.35;100.00;72387.25;5045680;28;20833;-72
2021/07/24 01:11:04;;;;;;;0.80;0.70;;;;;;;16.27;100.00;72045.06;5045929;28;20885;-73
2021/07/24 01:13:34;;;;;;;0.70;0.70;;;;;;;16.19;100.00;71703.03;5028768;28;20458;-72
2021/07/24 01:16:02;;;;;;;0.70;0.60;;;;;;;16.12;100.00;71029.22;5046599;28;20448;-72
2021/07/24 01:18:32;;;;;;;0.70;0.60;;;;;;;16.09;100.00;70693.06;5039388;28;20472;-72
2021/07/24 01:21:04;;;;;;;0.70;0.60;;;;;;;16.03;100.00;70352.63;5026147;28;20966;-72
2021/07/24 01:23:37;;;;;;;0.80;0.70;;;;;;;15.99;100.00;69683.69;5025206;28;21029;-72
2021/07/24 01:26:06;;;;;;;0.80;0.70;;;;;;;15.92;100.00;69010.75;5033468;28;20478;-73
2021/07/24 01:28:35;;;;;;;0.80;0.70;;;;;;;15.86;100.00;68007.78;5031511;28;20965;-72
2021/07/24 01:31:06;;;;;;;0.70;0.60;;;;;;;15.83;100.00;67008.28;5025226;28;20535;-73
2021/07/24 01:33:39;;;;;;;0.80;0.80;;;;;;;15.85;100.00;66346.19;5028190;28;20467;-72
2021/07/24 01:36:08;;;;;;;0.80;0.70;;;;;;;15.82;100.00;65015.50;5043542;28;20478;-71
2021/07/24 01:38:39;;;;;;;0.80;0.70;;;;;;;15.78;100.00;64348.13;5029821;28;20465;-71
2021/07/24 01:41:11;;;;;;;0.70;0.60;;;;;;;15.79;100.00;63354.44;5050623;28;20466;-71
2021/07/24 01:43:40;;;;;;;0.80;0.80;;;;;;;15.77;100.00;62026.28;5049586;28;20472;-72
2021/07/24 01:46:10;;;;;;;0.73;0.70;;;;;;;15.81;100.00;60705.13;5050282;28;20521;-72
2021/07/24 01:54:30;;;;;;;0.70;0.60;;;;;;;15.98;100.00;53769.94;5029814;28;20455;-72
2021/07/24 01:57:20;;;;;;;0.80;0.70;;;;;;;15.96;100.00;51453.84;5030203;28;20447;-71
2021/07/24 01:59:59;;;;;;;0.80;0.60;;;;;;;15.89;100.00;49796.47;5028612;28;20463;-71
2021/07/24 02:02:38;;;;;;;0.70;0.60;;;;;;;15.85;100.00;47811.47;5038526;28;20520;-72
2021/07/24 02:05:10;;;;;;;0.80;0.80;;;;;;;15.85;100.00;45502.16;5048128;28;20479;-72
2021/07/24 02:07:46;;;;;;;0.77;0.70;;;;;;;15.90;100.00;43197.50;5047281;28;20832;-71
2021/07/24 02:10:17;;;;;;;0.70;0.60;;;;;;;15.78;100.00;39894.28;5035887;28;20460;-71
2021/07/24 02:12:55;;;;;;;0.70;0.60;;;;;;;15.66;100.00;36924.44;5029949;28;20450;-71
2021/07/24 02:15:23;;;;;;;0.73;0.70;;;;;;;15.60;100.00;34151.44;5039171;28;20459;-70
2021/07/24 02:17:51;;;;;;;0.70;0.60;;;;;;;15.57;100.00;32938.09;5046906;28;20466;-71
2021/07/24 02:20:23;;;;;;;0.70;0.70;;;;;;;15.46;100.00;30034.00;5047589;28;20460;-71
2021/07/24 02:22:50;;;;;;;0.80;0.70;;;;;;;15.36;100.00;26503.44;5048283;28;20499;-72
2021/07/24 02:25:19;;;;;;;0.70;0.60;;;;;;;15.39;100.00;22658.72;5047602;28;20477;-72
2021/07/24 02:27:48;;;;;;;0.70;0.63;;;;;;;15.32;100.00;18906.28;5029795;28;20460;-71
2021/07/24 02:30:16;;;;;;;0.80;0.77;;;;;;;15.33;100.00;15472.75;5029459;28;20544;-72
2021/07/24 02:32:44;;;;;;;0.80;0.70;;;;;;;15.32;100.00;11843.31;5036812;28;20814;-71
2021/07/24 02:35:12;;;;;;;0.70;0.60;;;;;;;15.30;100.00;8492.78;5029390;28;20467;-72
2021/07/24 02:37:59;;;;;;;0.70;0.60;;;;;;;15.25;100.00;4657.09;5028106;28;20479;-71
2021/07/24 02:40:29;;;;;;;0.77;0.70;;;;;;;15.17;100.00;1588.31;5027153;28;20463;-72
2021/07/24 02:43:07;;;;;;;0.80;0.70;;;;;;;15.15;100.00;-1222.81;5040524;28;20463;-71
2021/07/24 02:45:34;;;;;;;0.70;0.70;;;;;;;15.11;100.00;-3095.47;5046735;28;20476;-72
2021/07/24 02:48:02;;;;;;;0.80;0.70;;;;;;;15.14;100.00;-4997.34;5047889;28;21349;-71
2021/07/24 02:50:33;;;;;;;0.70;0.60;;;;;;;15.09;100.00;-7176.59;5046761;28;20475;-71
2021/07/24 02:53:01;;;;;;;0.80;0.80;;;;;;;15.08;100.00;-9159.44;5038038;28;20537;-72
2021/07/24 02:55:31;;;;;;;0.70;0.70;;;;;;;15.09;100.00;-11186.81;5027646;28;20480;-71
2021/07/24 02:57:58;;;;;;;0.80;0.70;;;;;;;15.09;100.00;-12841.16;5026826;28;21331;-71
2021/07/24 03:00:25;;;;;;;0.70;0.60;;;;;;;15.18;100.00;-14116.84;5026959;28;20522;-71
2021/07/24 03:02:53;;;;;;;0.80;0.70;;;;;;;15.17;100.00;-14966.03;5026869;28;20996;-71
2021/07/24 03:05:20;;;;;;;0.80;0.70;;;;;;;15.15;100.00;-15587.47;5046758;28;20473;-72
2021/07/24 03:07:47;;;;;;;0.70;0.60;;;;;;;15.12;100.00;-16405.41;5049048;28;20447;-71
2021/07/24 03:10:14;;;;;;;0.77;0.70;;;;;;;15.19;100.00;-17212.66;5048317;28;20518;-72
2021/07/24 03:12:43;;;;;;;0.73;0.60;;;;;;;15.21;100.00;-17639.94;5048864;28;20454;-73
2021/07/24 03:15:10;;;;;;;0.70;0.60;;;;;;;15.26;100.00;-17827.94;5030656;28;20463;-73
2021/07/24 03:17:37;;;;;;;0.70;0.60;;;;;;;15.30;100.00;-18013.19;5047682;28;20456;-72
2021/07/24 03:20:06;;;;;;;0.70;0.70;;;;;;;15.35;100.00;-18072.41;5044532;28;20461;-72
2021/07/24 03:22:33;;;;;;;0.80;0.70;;;;;;;15.41;100.00;-17927.25;5036221;28;20493;-71
2021/07/24 03:25:00;;;;;;;0.70;0.60;;;;;;;15.46;100.00;-17827.19;5048115;28;20888;-71
2021/07/24 03:27:27;;;;;;;0.80;0.70;;;;;;;15.49;100.00;-17779.75;5047202;28;20836;-72
2021/07/24 03:29:55;;;;;;;0.70;0.70;;;;;;;15.55;100.00;-17758.34;5048145;28;20498;-71
2021/07/24 03:32:22;;;;;;;0.70;0.60;;;;;;;15.54;100.00;-17755.59;5046714;28;20891;-73
2021/07/24 03:34:51;;;;;;;0.70;0.60;;;;;;;15.55;100.00;-17778.56;5046414;28;20455;-71
2021/07/24 03:37:21;;;;;;;0.70;0.60;;;;;;;15.54;100.00;-17748.13;5040075;28;20557;-71
2021/07/24 03:39:51;;;;;;;0.70;0.70;;;;;;;15.55;100.00;-17806.34;5025584;28;20465;-72
2021/07/24 03:42:18;;;;;;;0.70;0.70;;;;;;;15.56;100.00;-17852.03;5027069;28;20510;-72
2021/07/24 03:44:44;;;;;;;0.70;0.67;;;;;;;15.50;100.00;-18265.06;5036891;28;20524;-72
2021/07/24 03:47:13;;;;;;;0.70;0.70;;;;;;;15.64;100.00;-18308.78;5047732;28;20449;-72
2021/07/24 03:49:40;;;;;;;0.80;0.70;;;;;;;15.76;100.00;-18301.34;5045518;28;20461;-72
2021/07/24 03:52:07;;;;;;;0.70;0.70;;;;;;;15.87;100.00;-18356.94;5047847;28;20887;-71
2021/07/24 03:54:34;;;;;;;0.70;0.70;;;;;;;16.03;100.00;-18373.16;5045938;28;20793;-72
2021/07/24 03:57:02;;;;;;;0.80;0.70;;;;;;;16.10;100.00;-18281.09;5046609;28;20821;-71
2021/07/24 03:59:29;;;;;;;0.70;0.70;;;;;;;16.17;100.00;-18082.88;5046860;28;20891;-72
2021/07/24 04:01:58;;;;;;;0.70;0.60;;;;;;;16.22;100.00;-17909.47;5047247;28;20462;-72
2021/07/24 04:04:26;;;;;;;0.70;0.70;;;;;;;16.29;100.00;-17582.16;5046322;28;21069;-72
2021/07/24 04:06:55;;;;;;;0.80;0.70;;;;;;;16.37;100.00;-17295.41;5041979;28;20468;-71
2021/07/24 04:09:22;;;;;;;0.70;0.70;;;;;;;16.45;100.00;-16970.41;5025697;28;20526;-72
2021/07/24 04:11:49;;;;;;;0.70;0.67;;;;;;;16.50;100.00;-16776.53;5028147;28;20554;-72
2021/07/24 04:14:17;;;;;;;0.70;0.70;;;;;;;16.60;100.00;-16343.03;5026680;28;20510;-71
2021/07/24 04:16:44;;;;;;;0.70;0.60;;;;;;;16.68;100.00;-15934.31;5026446;28;20456;-71
2021/07/24 04:19:11;;;;;;;0.70;0.70;;;;;;;16.82;100.00;-15293.41;5025932;28;20828;-72
2021/07/24 04:21:39;;;;;;;0.77;0.70;;;;;;;16.93;100.00;-14664.09;5029941;28;20879;-71
2021/07/24 04:24:06;;;;;;;0.70;0.70;;;;;;;16.96;100.00;-14109.47;5029836;28;20880;-72
2021/07/24 04:26:33;;;;;;;0.70;0.60;;;;;;;16.95;100.00;-13690.88;5027307;28;20454;-71
2021/07/24 04:29:01;;;;;;;0.80;0.80;;;;;;;16.97;100.00;-13168.75;5029897;28;20490;-71
2021/07/24 04:31:28;;;;;;;0.70;0.70;;;;;;;17.08;100.00;-12708.66;5027414;28;20450;-72
2021/07/24 04:33:57;;;;;;;0.70;0.60;;;;;;;17.44;100.00;-11977.22;5026629;28;21003;-71
2021/07/24 04:36:24;;;;;;;0.70;0.60;;;;;;;17.65;100.00;-10818.91;5025859;28;20449;-71
2021/07/24 04:38:52;;;;;;;0.70;0.60;;;;;;;17.82;100.00;-9605.66;5033198;28;20490;-71
2021/07/24 04:41:21;;;;;;;0.70;0.60;;;;;;;18.05;100.00;-8371.25;5029465;28;20445;-73
2021/07/24 04:43:48;;;;;;;0.80;0.70;;;;;;;18.15;100.00;-7127.28;5026063;28;20454;-72
2021/07/24 04:46:15;;;;;;;0.80;0.70;;;;;;;18.32;100.00;-5755.28;5026647;28;20496;-72
2021/07/24 04:48:42;;;;;;;0.70;0.60;;;;;;;18.46;100.00;-4420.13;5026587;28;20455;-71
2021/07/24 04:51:09;;;;;;;0.80;0.70;;;;;;;18.60;100.00;-2971.63;5025676;28;20506;-72
2021/07/24 04:53:37;;;;;;;0.80;0.70;;;;;;;18.74;100.00;-1567.78;5027329;28;20473;-71
2021/07/24 04:56:06;;;;;;;0.80;0.70;;;;;;;18.98;100.00;-397.06;5025518;28;20805;-72
2021/07/24 04:58:35;;;;;;;1.10;1.00;;;;;;;19.06;100.00;1100.78;5026490;28;20443;-73
2021/07/24 05:01:02;;;;;;;0.70;0.70;;;;;;;19.13;100.00;2070.31;5027232;28;20484;-72
2021/07/24 05:03:31;;;;;;;0.73;0.70;;;;;;;19.18;100.00;2554.16;5026096;28;20466;-71
2021/07/24 05:05:59;;;;;;;0.80;0.70;;;;;;;19.34;100.00;2259.13;5045891;28;20476;-72
2021/07/24 05:08:26;;;;;;;0.70;0.60;;;;;;;19.28;100.00;1355.88;5032342;28;20460;-72
2021/07/24 05:10:53;;;;;;;0.70;0.60;;;;;;;19.19;100.00;590.66;5026891;28;20451;-72
2021/07/24 05:13:22;;;;;;;0.80;0.70;;;;;;;19.22;100.00;-860.59;5028851;28;20504;-72
2021/07/24 05:15:52;;;;;;;0.70;0.70;;;;;;;19.20;100.00;-2720.13;5031964;28;20462;-71
2021/07/24 05:18:19;;;;;;;0.70;0.60;;;;;;;19.24;100.00;-7211.25;5039442;28;20973;-72
2021/07/24 05:20:46;;;;;;;0.77;0.70;;;;;;;19.24;100.00;-10580.72;5048677;28;20445;-71
2021/07/24 05:23:14;;;;;;;0.70;0.60;;;;;;;19.36;100.00;-15976.34;5048462;28;20473;-72
2021/07/24 05:25:42;;;;;;;0.70;0.70;;;;;;;19.44;100.00;-20119.41;5049130;28;20478;-72
2021/07/24 05:28:09;;;;;;;0.70;0.67;;;;;;;19.41;100.00;-21207.91;5049549;28;20452;-73
2021/07/24 05:30:38;;;;;;;0.80;0.70;;;;;;;19.42;100.00;-21208.03;5050964;28;20600;-72
2021/07/24 05:33:04;;;;;;;0.70;0.60;;;;;;;19.47;100.00;-21209.41;5049869;28;20464;-72
2021/07/24 05:35:31;;;;;;;0.80;0.73;;;;;;;19.55;100.00;-21211.72;5050506;28;20450;-71
2021/07/24 05:37:59;;;;;;;1.40;0.83;;;;;;;19.63;100.00;-21213.63;5050068;28;20471;-72
2021/07/24 05:40:26;;;;;;;0.73;0.60;;;;;;;19.79;100.00;-21218.00;5048158;28;20486;-72
2021/07/24 05:42:58;;;;;;;0.80;0.70;;;;;;;19.87;100.00;-21220.06;5048785;28;20529;-72
2021/07/24 05:45:26;;;;;;;0.80;0.70;;;;;;;20.03;100.00;-21224.56;5049104;28;20578;-72
2021/07/24 05:47:54;;;;;;;0.73;0.60;;;;;;;20.12;100.00;-21226.91;5050651;28;20790;-72
2021/07/24 05:50:21;;;;;;;0.80;0.60;;;;;;;20.32;100.00;-21232.09;5047158;28;20451;-72
2021/07/24 05:52:48;;;;;;;0.97;0.90;;;;;;;20.36;100.00;-21233.19;5037895;28;21005;-72
2021/07/24 05:55:15;;;;;;;0.70;0.60;;;;;;;20.54;100.00;-21237.97;5049677;28;20456;-72
2021/07/24 05:57:42;;;;;;;0.87;0.80;;;;;;;20.69;100.00;-21242.06;5048472;28;20942;-72
2021/07/24 06:00:10;;;;;;;0.80;0.70;;;;;;;20.87;100.00;-21246.97;5048761;28;20452;-72
2021/07/24 06:02:41;;;;;;;0.70;0.60;;;;;;;20.96;100.00;-21249.44;5037754;28;20824;-72
2021/07/24 06:05:10;;;;;;;0.80;0.60;;;;;;;20.97;100.00;-21249.69;5030403;28;20472;-72
2021/07/24 06:07:37;;;;;;;0.80;0.70;;;;;;;21.08;100.00;-21252.56;5036503;28;20871;-71
2021/07/24 06:10:07;;;;;;;0.73;0.70;;;;;;;21.11;100.00;-21253.25;5049804;28;20425;-72
2021/07/24 06:12:34;;;;;;;0.70;0.70;;;;;;;21.31;100.00;-21258.56;5048950;28;20444;-72
2021/07/24 06:15:01;;;;;;;0.80;0.67;;;;;;;21.44;100.00;-21262.13;5048001;28;20942;-72
2021/07/24 06:17:28;;;;;;;1.13;1.03;;;;;;;21.37;100.00;-21260.34;5044877;28;20546;-72
2021/07/24 06:19:55;;;;;;;0.80;0.70;;;;;;;21.45;100.00;-21262.38;5048795;28;20459;-72
2021/07/24 06:22:24;;;;;;;0.80;0.70;;;;;;;21.53;100.00;-21264.56;5049556;28;20419;-71
2021/07/24 06:24:51;;;;;;;0.80;0.60;;;;;;;21.70;100.00;-21269.19;5033625;28;20450;-72
2021/07/24 06:27:17;;;;;;;0.80;0.70;;;;;;;21.84;100.00;-21272.75;5028143;28;20530;-72
2021/07/24 06:29:45;;;;;;;0.80;0.80;;;;;;;21.89;100.00;-21274.25;5031472;28;20848;-72
2021/07/24 06:32:15;;;;;;;5.47;0.90;;;;;;;21.92;100.00;-21274.94;5029482;28;20463;-72
2021/07/24 06:34:42;;;;;;;0.70;0.60;;;;;;;21.83;100.00;-21272.47;5037954;28;20506;-71
2021/07/24 06:37:09;;;;;;;0.70;0.60;;;;;;;21.87;100.00;-21273.56;5049208;28;20450;-72
2021/07/24 06:39:37;;;;;;;0.80;0.70;;;;;;;21.82;100.00;-21272.19;5049491;28;20418;-72
2021/07/24 06:42:04;;;;;;;0.80;0.70;;;;;;;21.96;100.00;-21276.00;5049018;28;20426;-74
2021/07/24 06:44:31;;;;;;;0.80;0.70;;;;;;;22.12;100.00;-21280.38;5047319;28;20452;-72
2021/07/24 06:46:58;;;;;;;0.80;0.80;;;;;;;22.29;100.00;-21284.75;5029177;28;20776;-73
2021/07/24 06:49:25;;;;;;;0.70;0.60;;;;;;;22.16;100.00;-21281.47;5033226;28;20935;-72
2021/07/24 06:51:52;;;;;;;0.70;0.60;;;;;;;22.27;100.00;-21284.31;5045458;28;21054;-73
2021/07/24 06:54:21;;;;;;;0.80;0.60;;;;;;;22.32;100.00;-21285.56;5047919;28;20560;-72
2021/07/24 06:56:50;;;;;;;0.80;0.77;;;;;;;22.39;100.00;-21287.47;5047712;28;20466;-72
2021/07/24 06:59:18;;;;;;;0.80;0.70;;;;;;;22.56;100.00;-21292.09;5039503;28;20452;-72
2021/07/24 07:01:45;;;;;;;0.73;0.60;;;;;;;22.90;100.00;-21301.06;5039646;28;20868;-73
2021/07/24 07:04:15;;;;;;;0.70;0.60;;;;;;;22.81;100.00;-21298.63;5036977;28;20960;-71
2021/07/24 07:06:43;;;;;;;0.80;0.70;;;;;;;22.93;100.00;-21301.88;5017330;28;20454;-72
2021/07/24 07:09:10;;;;;;;0.70;0.50;;;;;;;22.95;100.00;-21302.44;5048789;28;20427;-72
2021/07/24 07:11:37;;;;;;;0.70;0.60;;;;;;;22.95;100.00;-21302.44;5044646;28;20458;-72
2021/07/24 07:14:06;;;;;;;0.73;0.70;;;;;;;23.04;100.00;-21304.75;5020571;28;20439;-72
2021/07/24 07:16:33;;;;;;;0.70;0.60;;;;;;;23.09;100.00;-21306.09;5027610;28;20804;-72
2021/07/24 07:19:04;;;;;;;0.80;0.77;;;;;;;22.92;100.00;-21301.47;5039096;28;20530;-72
2021/07/24 07:21:31;;;;;;;0.70;0.60;;;;;;;23.05;100.00;-21305.03;5048814;28;20487;-72
2021/07/24 07:23:58;;;;;;;0.70;0.50;;;;;;;22.99;100.00;-21303.53;5047936;28;20849;-72
2021/07/24 07:26:28;;;;;;;0.80;0.73;;;;;;;22.87;100.00;-21300.25;5044831;28;20464;-72
2021/07/24 07:29:02;;;;;;;0.73;0.63;;;;;;;23.02;100.00;-21304.34;5047327;28;20456;-72
2021/07/24 07:31:31;;;;;;;0.70;0.60;;;;;;;22.92;100.00;-21301.47;5047599;28;20547;-72
2021/07/24 07:33:59;;;;;;;0.70;0.60;;;;;;;22.75;100.00;-21297.00;5046424;28;20467;-73
2021/07/24 07:36:26;;;;;;;0.80;0.60;;;;;;;23.11;100.00;-21306.66;5047436;28;20482;-72
2021/07/24 07:38:54;;;;;;;0.80;0.80;;;;;;;23.30;100.00;-21311.81;5048233;28;20479;-73
2021/07/24 07:41:21;;;;;;;0.70;0.60;;;;;;;23.47;100.00;-21316.31;5038129;28;20491;-73
2021/07/24 07:43:50;;;;;;;0.80;0.67;;;;;;;23.25;100.00;-21310.31;5027032;28;20453;-72
2021/07/24 07:46:17;;;;;;;0.70;0.60;;;;;;;23.35;100.00;-21313.03;5026159;28;20451;-73
2021/07/24 07:48:45;;;;;;;0.80;0.70;;;;;;;23.45;100.00;-21315.63;5044172;28;20459;-72
2021/07/24 07:51:12;;;;;;;0.70;0.60;;;;;;;23.66;100.00;-21321.19;5046787;28;20455;-72
2021/07/24 07:53:39;;;;;;;1.87;1.77;;;;;;;23.90;100.00;-21327.72;5045019;28;20457;-72
2021/07/24 07:56:09;;;;;;;0.80;0.70;;;;;;;23.96;100.00;-21329.34;5046777;28;20452;-72
2021/07/24 07:58:37;;;;;;;0.80;0.70;;;;;;;24.19;100.00;-21335.47;5047442;28;20459;-72
2021/07/24 08:01:10;;;;;;;0.70;0.60;;;;;;;24.33;100.00;-21339.13;5046458;28;20817;-72
2021/07/24 08:03:59;;;;;;;0.80;0.70;;;;;;;24.54;100.00;-21344.84;5026878;28;20522;-74
2021/07/24 08:06:26;;;;;;;0.70;0.60;;;;;;;24.68;100.00;-21348.50;5026176;28;20473;-72
2021/07/24 08:08:53;;;;;;;0.77;0.60;;;;;;;24.79;100.00;-21351.34;5028976;28;20452;-73
2021/07/24 08:11:20;;;;;;;1.00;0.90;;;;;;;24.62;100.00;-21346.75;5045764;28;20859;-72
2021/07/24 08:13:47;;;;;;;0.80;0.70;;;;;;;24.34;100.00;-21339.41;5045856;28;20852;-72
2021/07/24 08:16:15;;;;;;;0.70;0.60;;;;;;;24.28;100.00;-21337.78;5043797;28;20986;-72
2021/07/24 08:18:43;;;;;;;0.70;0.60;;;;;;;24.13;100.00;-21333.84;5046462;28;20837;-72
2021/07/24 08:21:11;;;;;;;0.80;0.60;;;;;;;23.92;100.00;-21328.13;5029229;28;20464;-72
2021/07/24 08:23:39;;;;;;;0.77;0.60;;;;;;;23.78;100.00;-21324.47;5046710;28;20505;-72
2021/07/24 08:26:06;;;;;;;0.70;0.60;;;;;;;;;;5027507;28;20893;-71
2021/07/24 08:28:33;;;;;;;0.73;0.60;;;;;;;23.67;100.00;-21321.59;5043020;28;21006;-72
2021/07/24 08:31:01;;;;;;;0.80;0.70;;;;;;;23.70;100.00;-21322.28;5047654;28;20555;-71
2021/07/24 08:33:29;;;;;;;0.70;0.60;;;;;;;23.44;100.00;-21315.50;5029484;28;20525;-72
2021/07/24 08:35:56;;;;;;;0.70;0.60;;;;;;;23.54;100.00;-21318.22;5027198;28;20852;-73
2021/07/24 08:38:26;;;;;;;0.80;0.60;;;;;;;23.30;100.00;-21311.69;5027334;28;20453;-72
2021/07/24 08:40:52;;;;;;;0.80;0.70;;;;;;;23.25;100.00;-21310.31;5010171;28;20558;-73
2021/07/24 08:43:21;;;;;;;0.80;0.70;;;;;;;23.12;100.00;-21307.06;5031320;28;20460;-72
2021/07/24 08:45:48;;;;;;;1.20;1.10;;;;;;;23.00;100.00;-21303.78;5045774;28;20471;-72
2021/07/24 08:48:15;;;;;;;0.70;0.60;;;;;;;23.09;100.00;-21306.09;5047573;28;20979;-72
2021/07/24 08:50:44;;;;;;;0.80;0.70;;;;;;;23.23;100.00;-21309.78;5050626;28;20460;-72
2021/07/24 08:53:20;;;;;;;0.80;0.60;;;;;;;23.45;100.00;-21315.75;5051597;28;20451;-72
2021/07/24 08:55:48;;;;;;;0.80;0.70;;;;;;;23.35;100.00;-21313.19;5050391;28;20461;-72
2021/07/24 08:58:18;;;;;;;0.80;0.80;;;;;;;23.27;100.00;-21310.88;5050123;28;20467;-72
2021/07/24 09:00:45;;;;;;;0.80;0.70;;;;;;;23.18;100.00;-21308.56;5033569;28;20820;-73
2021/07/24 09:03:19;;;;;;;0.80;0.70;;;;;;;23.29;100.00;-21311.41;5045951;28;20492;-72
2021/07/24 09:05:48;;;;;;;0.80;0.70;;;;;;;23.09;100.00;-21306.25;5048421;28;20851;-72
2021/07/24 09:08:36;;;;;;;0.70;0.60;;;;;;;23.12;100.00;-21306.91;5040138;28;20448;-71
2021/07/24 09:11:06;;;;;;;0.70;0.60;;;;;;;23.24;100.00;-21310.19;5029684;28;20788;-73
2021/07/24 09:13:32;;;;;;;0.80;0.70;;;;;;;23.17;100.00;-21308.16;5032781;28;20467;-72
2021/07/24 09:16:00;;;;;;;0.80;0.70;;;;;;;23.25;100.00;-21310.31;5050325;28;20448;-71
2021/07/24 09:18:31;;;;;;;0.80;0.70;;;;;;;23.21;100.00;-21309.25;5050808;28;20956;-72
2021/07/24 09:20:59;;;;;;;0.70;0.60;;;;;;;23.22;100.00;-21309.66;5049457;28;20422;-72
2021/07/24 09:23:27;;;;;;;0.80;0.70;;;;;;;23.00;100.00;-21303.66;5032942;28;20479;-72
2021/07/24 09:25:55;;;;;;;0.80;0.70;;;;;;;22.85;100.00;-21299.72;5049657;28;20850;-72
2021/07/24 09:28:25;;;;;;;0.80;0.70;;;;;;;22.84;100.00;-21299.56;5043779;28;20495;-72
2021/07/24 09:30:52;;;;;;;0.70;0.60;;;;;;;22.84;100.00;-21299.56;5042075;28;20541;-72
2021/07/24 09:33:22;;;;;;;0.73;0.60;;;;;;;22.62;100.00;-21293.59;5049700;28;20487;-72
2021/07/24 09:36:01;;;;;;;0.70;0.63;;;;;;;22.59;100.00;-21292.91;5050627;28;20444;-71
2021/07/24 09:38:32;;;;;;;0.80;0.70;;;;;;;22.54;100.00;-21291.41;5050398;28;20456;-72
2021/07/24 09:41:02;;;;;;;0.80;0.70;;;;;;;22.39;100.00;-21287.47;5049348;28;20459;-72
2021/07/24 09:43:35;;;;;;;0.80;0.70;;;;;;;22.25;100.00;-21283.78;5046458;28;20465;-72
2021/07/24 09:46:09;;;;;;;0.80;0.60;;;;;;;22.17;100.00;-21281.75;5031219;28;20480;-72
2021/07/24 09:48:37;;;;;;;0.70;0.60;;;;;;;22.26;100.00;-21283.91;5030537;28;20428;-72
2021/07/24 09:51:05;;;;;;;0.70;0.60;;;;;;;22.31;100.00;-21285.41;5029305;28;20487;-72
2021/07/24 09:53:39;;;;;;;0.80;0.70;;;;;;;22.52;100.00;-21291.00;5029930;28;20443;-72
2021/07/24 09:56:11;;;;;;;0.73;0.60;;;;;;;22.66;100.00;-21294.81;5027939;28;20548;-72
2021/07/24 09:58:40;;;;;;;0.73;0.67;;;;;;;22.71;100.00;-21295.91;5047947;28;20465;-73
2021/07/24 10:01:08;;;;;;;0.80;0.70;;;;;;;22.87;100.00;-21300.25;5049172;28;20456;-73
2021/07/24 10:03:38;;;;;;;0.80;0.70;;;;;;;22.84;100.00;-21299.44;5049370;28;20430;-72
2021/07/24 10:06:11;;;;;;;0.73;0.67;;;;;;;22.94;100.00;-21302.03;5043714;28;20535;-71
2021/07/24 10:08:40;;;;;;;0.77;0.60;;;;;;;23.06;100.00;-21305.44;5028758;28;20487;-72
2021/07/24 10:11:08;;;;;;;0.70;0.60;;;;;;;23.17;100.00;-21308.16;5029198;28;20535;-73
2021/07/24 10:13:37;;;;;;;0.70;0.70;;;;;;;23.26;100.00;-21310.59;5027679;28;20487;-73
2021/07/24 10:16:06;;;;;;;0.70;0.60;;;;;;;23.30;100.00;-21311.81;5028878;28;20416;-73
2021/07/24 10:18:33;;;;;;;0.70;0.60;;;;;;;23.51;100.00;-21317.41;5027600;28;20527;-71
2021/07/24 10:21:02;;;;;;;0.70;0.60;;;;;;;23.74;100.00;-21323.38;5028789;28;20451;-73
2021/07/24 10:23:33;;;;;;;0.70;0.60;;;;;;;23.85;100.00;-21326.38;5028579;28;20449;-72
2021/07/24 10:26:10;;;;;;;0.80;0.60;;;;;;;23.90;100.00;-21327.72;5032228;28;20479;-72
2021/07/24 10:28:47;;;;;;;0.80;0.77;;;;;;;23.96;100.00;-21329.22;5029402;28;20938;-72
2021/07/24 10:31:23;;;;;;;0.80;0.70;;;;;;;23.67;100.00;-21321.47;5030739;28;20510;-72
2021/07/24 10:33:54;;;;;;;0.80;0.60;;;;;;;23.63;100.00;-21320.66;5044916;28;20456;-72
2021/07/24 10:36:33;;;;;;;0.80;0.80;;;;;;;23.54;100.00;-21318.22;5028365;28;21557;-74
2021/07/24 10:39:02;;;;;;;0.80;0.63;;;;;;;23.24;100.00;-21310.19;5028188;28;20448;-72
2021/07/24 10:41:48;;;;;;;0.80;0.80;;;;;;;23.27;100.00;-21310.88;5028212;28;20867;-72
2021/07/24 10:44:37;;;;;;;0.77;0.60;;;;;;;23.12;100.00;-21306.91;5030588;28;20535;-71
2021/07/24 10:47:17;;;;;;;0.70;0.70;;;;;;;23.15;100.00;-21307.88;5028105;28;20969;-72
2021/07/24 10:50:01;;;;;;;0.70;0.60;;;;;;;23.18;100.00;-21308.41;5036403;28;20479;-72
2021/07/24 10:53:08;;;;;;;0.80;0.70;;;;;;;22.98;100.00;-21303.13;5044458;28;20472;-73
2021/07/24 10:55:39;;;;;;;0.80;0.60;;;;;;;22.92;100.00;-21301.63;5048689;28;20963;-72
2021/07/24 10:58:06;;;;;;;0.70;0.63;;;;;;;22.82;100.00;-21298.88;5048243;28;20459;-73
2021/07/24 11:00:50;;;;;;;0.70;0.60;;;;;;;22.81;100.00;-21298.75;5048926;28;20432;-72
2021/07/24 11:03:42;;;;;;;0.73;0.60;;;;;;;22.81;100.00;-21298.63;5043904;28;20457;-72
2021/07/24 11:06:30;;;;;;;0.70;0.60;;;;;;;22.42;100.00;-21288.28;5048033;28;20467;-73
2021/07/24 11:09:06;;;;;;;0.80;0.70;;;;;;;22.25;100.00;-21283.78;5047858;28;20453;-72
2021/07/24 11:11:44;;;;;;;0.80;0.70;;;;;;;22.15;100.00;-21281.06;5047243;28;20451;-72
2021/07/24 11:14:54;;;;;;;0.80;0.70;;;;;;;22.26;100.00;-21283.91;5047820;28;20423;-72
2021/07/24 11:17:22;;;;;;;0.80;0.67;;;;;;;22.21;100.00;-21282.56;5046889;28;20502;-71
2021/07/24 11:20:30;;;;;;;0.80;0.70;;;;;;;21.99;100.00;-21276.84;5048764;28;20801;-71
2021/07/24 11:23:08;;;;;;;0.70;0.60;;;;;;;21.93;100.00;-21275.34;5047418;28;20476;-72
2021/07/24 11:25:38;;;;;;;0.70;0.60;;;;;;;21.88;100.00;-21273.97;5046804;28;20915;-72
2021/07/24 11:28:17;;;;;;;0.80;0.63;;;;;;;21.83;100.00;-21272.47;5031713;28;20545;-72
2021/07/24 11:30:59;;;;;;;0.80;0.70;;;;;;;21.79;100.00;-21271.38;5056863;28;20522;-72
2021/07/24 11:33:29;;;;;;;0.80;0.70;;;;;;;21.75;100.00;-21270.28;5055624;28;20422;-72
2021/07/24 11:36:13;;;;;;;0.70;0.60;;;;;;;21.79;100.00;-21271.50;5056575;28;20521;-71
2021/07/24 11:38:46;;;;;;;0.80;0.70;;;;;;;21.57;100.00;-21265.66;5032874;28;20537;-73